HESH/SSH METAR and TAF weather

Enter ICAO airport designator
Station Type Date Time Source
HESH METAR 2022/11/30 10:00 UTC NOAA

HESH 301000Z 01009KT CAVOK 25/11 Q1015 NOSIG


Station Type Date Time Source
HESH Decoded METAR 2022/11/30 10:00 UTC NOAA

Sharm El Sheikhintl, Egypt (HESH) 27-58N 034-23E
Nov 30, 2022 - 05:00 AM EST / 2022.11.30 1000 UTC
Wind: from the N (010 degrees) at 10 MPH (9 KT):0
Visibility: greater than 7 mile(s):0
Temperature: 77 F (25 C)
Dew Point: 51 F (11 C)
Relative Humidity: 41%
Pressure (altimeter): 29.97 in. Hg (1015 hPa)
ob: HESH 301000Z 01009KT CAVOK 25/11 Q1015 NOSIG
cycle: 10

Station Type Date Time Source
HESH TAF 2022/11/30 12:40 UTC NOAA

TAF HESH 301100Z 3012/0118 03010KT CAVOK

Example: see airport list